This is the latest recevied weather packets stored in our database for station/object W8RD. If no packets are shown the sender has not sent any weather packets the latest 10 day(s).
| Time | Temp. | Humidity | Pressure | Rain* | Wind** | Luminosity | Snow |
|---|---|---|---|---|---|---|---|
| 1777605524 | 24.44° C | 86% | 1013.6 hPa | 0 mm | - | 0 W/m² | - |
| 1777604923 | 24.44° C | 86% | 1013.9 hPa | 0 mm | - | 0 W/m² | - |
| 1777604321 | 25° C | 85% | 1013.7 hPa | 0 mm | - | 0 W/m² | - |
| 1777603719 | 25° C | 85% | 1013.6 hPa | 0 mm | - | 0 W/m² | - |
| 1777603116 | 25° C | 85% | 1013.4 hPa | 0 mm | - | 0 W/m² | - |
| 1777602512 | 25° C | 85% | 1013.2 hPa | 0 mm | - | 0 W/m² | - |
| 1777601910 | 25° C | 84% | 1013.2 hPa | 0 mm | - | 0 W/m² | - |
| 1777601307 | 25° C | 85% | 1013 hPa | 0 mm | - | 0 W/m² | - |
| 1777586857 | 27.22° C | 72% | 1012.2 hPa | 0 mm | - | 137 W/m² | - |
| 1777586255 | 27.22° C | 74% | 1012.1 hPa | 0 mm | - | 127 W/m² | - |
| 1777584450 | 27.78° C | 73% | 1012.3 hPa | 0 mm | - | 325 W/m² | - |
| 1777581437 | 27.22° C | 75% | 1013 hPa | 0 mm | - | 194 W/m² | - |
| 1777579628 | 28.89° C | 69% | 1012.9 hPa | 0 mm | - | 253 W/m² | - |
| 1777577820 | 29.44° C | 66% | 1012.9 hPa | 0 mm | - | 483 W/m² | - |
| 1777577219 | 30° C | 65% | 1013.3 hPa | 0 mm | - | 761 W/m² | - |
| 1777576616 | 28.89° C | 69% | 1013.1 hPa | 0 mm | - | 767 W/m² | - |
| 1777576014 | 28.89° C | 69% | 1013.4 hPa | 0 mm | - | 391 W/m² | - |
| 1777569992 | 30° C | 66% | 1014.4 hPa | 0 mm | - | 972 W/m² | - |
| 1777568189 | 28.89° C | 70% | 1014.6 hPa | 0 mm | - | 785 W/m² | - |
| 1777566984 | 28.89° C | 69% | 1014.4 hPa | 0 mm | - | 156 W/m² | - |
| 1777565777 | 28.89° C | 67% | 1014.2 hPa | 0 mm | - | 80 W/m² | - |
| 1777565176 | 28.33° C | 68% | 1014 hPa | 0 mm | - | 191 W/m² | - |
| 1777564573 | 27.78° C | 72% | 1014.3 hPa | 0 mm | - | 60 W/m² | - |
| 1777563368 | 27.78° C | 71% | 1014.1 hPa | 0 mm | - | 137 W/m² | - |
| 1777562766 | 27.22° C | 73% | 1014 hPa | 0 mm | - | 151 W/m² | - |
* Rain latest hour (hover to see other rain measurements)
** Current wind speed in m/s (hover to see current wind gust speed)